createdAt,value
2018-06-02T00:01:16.800Z,93.68
2018-06-02T00:03:45.023Z,93.65
2018-06-02T00:06:13.229Z,93.47
2018-06-02T00:08:41.435Z,93.91
2018-06-02T00:11:09.647Z,93.73
2018-06-02T00:13:37.826Z,93.67
2018-06-02T00:16:06.011Z,93.20
2018-06-02T00:18:47.138Z,93.00
2018-06-02T00:21:17.405Z,91.82
2018-06-02T00:23:45.625Z,91.96
2018-06-02T00:26:13.824Z,91.28
2018-06-02T00:28:42.009Z,91.35
2018-06-02T00:31:10.186Z,91.36
2018-06-02T00:33:38.456Z,91.54
2018-06-02T00:36:06.610Z,91.61
2018-06-02T00:38:34.764Z,91.73
2018-06-02T00:41:02.951Z,92.47
2018-06-02T00:43:31.128Z,92.11
2018-06-02T00:45:59.329Z,92.27
2018-06-02T00:48:27.508Z,92.34
2018-06-02T00:50:55.769Z,92.76
2018-06-02T00:53:23.936Z,92.45
2018-06-02T00:55:52.143Z,92.98
2018-06-02T00:58:20.307Z,92.39
2018-06-02T01:00:48.523Z,92.26
2018-06-02T01:03:16.691Z,92.91
2018-06-02T01:05:44.911Z,92.74
2018-06-02T01:08:13.077Z,92.50
2018-06-02T01:10:41.301Z,91.62
2018-06-02T01:13:09.501Z,92.26
2018-06-02T01:15:37.665Z,93.02
2018-06-02T01:18:05.874Z,92.71
2018-06-02T01:20:34.050Z,93.29
2018-06-02T01:23:02.241Z,93.58
2018-06-02T01:25:30.440Z,93.28
2018-06-02T01:27:58.648Z,93.48
2018-06-02T01:30:26.808Z,92.82
2018-06-02T01:32:54.973Z,93.63
2018-06-02T01:35:23.199Z,93.86
2018-06-02T01:37:51.401Z,94.12
2018-06-02T01:40:19.580Z,93.98
2018-06-02T01:42:47.773Z,94.45
2018-06-02T01:45:16.792Z,94.57
2018-06-02T01:47:45.000Z,94.32
2018-06-02T01:50:13.169Z,94.29
2018-06-02T01:52:41.391Z,93.96
2018-06-02T01:55:09.569Z,93.83
2018-06-02T01:57:37.776Z,94.00
2018-06-02T02:00:05.982Z,93.84
2018-06-02T02:02:34.195Z,93.64
2018-06-02T02:05:02.363Z,93.58
2018-06-02T02:07:30.518Z,93.73
2018-06-02T02:09:58.733Z,93.03
2018-06-02T02:12:26.914Z,92.92
2018-06-02T02:14:55.088Z,93.20
2018-06-02T02:17:23.340Z,93.03
2018-06-02T02:19:51.494Z,92.83
2018-06-02T02:22:19.682Z,92.09
2018-06-02T02:24:47.854Z,92.94
2018-06-02T02:27:16.045Z,93.37
2018-06-02T02:29:44.225Z,92.98
2018-06-02T02:32:12.397Z,92.96
2018-06-02T02:34:40.594Z,92.75
2018-06-02T02:37:08.806Z,92.91
2018-06-02T02:39:36.995Z,92.69
2018-06-02T02:42:05.614Z,92.28
2018-06-02T02:44:33.830Z,92.76
2018-06-02T02:47:02.029Z,93.02
2018-06-02T02:49:30.226Z,92.55
2018-06-02T02:51:58.423Z,92.48
2018-06-02T02:54:26.649Z,92.49
2018-06-02T02:56:54.843Z,92.38
2018-06-02T02:59:23.005Z,91.83
2018-06-02T03:01:51.924Z,92.59
2018-06-02T03:04:20.112Z,92.84
2018-06-02T03:06:48.309Z,92.73
2018-06-02T03:09:16.501Z,92.29
2018-06-02T03:11:45.132Z,92.20
2018-06-02T03:14:13.355Z,92.56
2018-06-02T03:16:41.573Z,92.75
2018-06-02T03:19:09.729Z,92.85
2018-06-02T03:21:38.415Z,92.49
2018-06-02T03:24:06.621Z,92.25
2018-06-02T03:26:34.844Z,91.96
2018-06-02T03:29:03.035Z,92.19
2018-06-02T03:31:31.201Z,92.08
2018-06-02T03:33:59.486Z,91.38
2018-06-02T03:36:27.662Z,92.06
2018-06-02T03:38:55.871Z,91.74
2018-06-02T03:41:24.039Z,91.42
2018-06-02T03:43:52.239Z,91.95
2018-06-02T03:46:20.426Z,92.15
2018-06-02T03:48:48.634Z,92.15
2018-06-02T03:51:16.847Z,91.98
2018-06-02T03:53:45.002Z,91.89
2018-06-02T03:56:13.209Z,92.33
2018-06-02T03:58:41.371Z,91.77
2018-06-02T04:01:09.545Z,92.29
2018-06-02T04:03:37.765Z,92.95
2018-06-02T04:06:05.926Z,93.08
2018-06-02T04:08:34.134Z,93.48
2018-06-02T04:11:02.319Z,92.48
2018-06-02T04:13:30.518Z,92.78
2018-06-02T04:15:58.746Z,92.62
2018-06-02T04:18:26.921Z,92.90
2018-06-02T04:20:55.129Z,92.74
2018-06-02T04:23:23.305Z,91.51
2018-06-02T04:25:51.503Z,91.83
2018-06-02T04:28:19.668Z,91.01
2018-06-02T04:30:47.859Z,92.08
2018-06-02T04:33:16.088Z,91.95
2018-06-02T04:35:44.280Z,91.44
2018-06-02T04:38:12.459Z,91.99
2018-06-02T04:40:40.740Z,91.73
2018-06-02T04:43:08.931Z,91.90
2018-06-02T04:45:37.082Z,90.44
2018-06-02T04:48:05.279Z,91.29
2018-06-02T04:50:33.495Z,91.65
2018-06-02T04:53:01.653Z,91.61
2018-06-02T04:55:30.131Z,91.39
2018-06-02T04:57:58.302Z,91.26
2018-06-02T05:00:26.571Z,91.10
2018-06-02T05:02:54.758Z,90.92
2018-06-02T05:05:22.990Z,91.12
2018-06-02T05:07:51.217Z,91.66
2018-06-02T05:10:19.429Z,90.96
2018-06-02T05:12:47.630Z,91.47
2018-06-02T05:15:15.803Z,92.01
2018-06-02T05:17:44.022Z,92.53
2018-06-02T05:20:12.226Z,92.12
2018-06-02T05:22:40.439Z,91.73
2018-06-02T05:25:08.666Z,91.94
2018-06-02T05:27:36.841Z,92.06
2018-06-02T05:30:05.041Z,92.21
2018-06-02T05:32:33.212Z,92.62
2018-06-02T05:35:01.909Z,92.97
2018-06-02T05:37:30.177Z,92.95
2018-06-02T05:39:59.707Z,93.20
2018-06-02T05:55:28.024Z,93.00
2018-06-02T05:57:56.478Z,92.90
2018-06-02T06:00:25.275Z,93.56
2018-06-02T06:02:53.841Z,92.26
2018-06-02T06:05:22.151Z,93.49
2018-06-02T06:07:50.372Z,92.87
2018-06-02T06:10:18.544Z,92.69
2018-06-02T06:12:46.728Z,92.51
2018-06-02T06:15:14.951Z,92.63
2018-06-02T06:17:43.158Z,92.96
2018-06-02T06:20:11.383Z,92.58
2018-06-02T06:22:39.552Z,92.50
2018-06-02T06:25:07.749Z,92.72
2018-06-02T06:27:35.927Z,92.75
2018-06-02T06:30:04.147Z,92.40
2018-06-02T06:32:32.333Z,92.55
2018-06-02T06:35:00.500Z,92.37
2018-06-02T06:37:28.698Z,92.67
2018-06-02T06:39:56.873Z,91.84
2018-06-02T06:42:25.074Z,92.21
2018-06-02T06:44:53.223Z,91.65
2018-06-02T06:47:21.391Z,90.87
2018-06-02T06:49:49.604Z,91.24
2018-06-02T06:52:17.780Z,90.03
2018-06-02T06:54:45.975Z,88.97
2018-06-02T06:57:14.165Z,88.01
2018-06-02T06:59:42.338Z,88.06
2018-06-02T07:02:10.539Z,88.23
2018-06-02T07:04:38.742Z,87.86
2018-06-02T07:07:06.948Z,86.77
2018-06-02T07:09:35.109Z,86.33
2018-06-02T07:12:03.353Z,87.12
2018-06-02T07:14:31.489Z,85.49
2018-06-02T07:16:59.762Z,85.68
2018-06-02T07:19:27.932Z,86.38
2018-06-02T07:21:56.134Z,85.98
2018-06-02T07:24:24.343Z,84.93
2018-06-02T07:26:52.534Z,86.20
2018-06-02T07:29:20.788Z,84.27
2018-06-02T07:31:48.963Z,84.62
2018-06-02T07:34:17.131Z,83.64
2018-06-02T07:36:45.318Z,84.04
2018-06-02T07:39:13.483Z,84.51
2018-06-02T07:41:41.673Z,85.12
2018-06-02T07:44:09.827Z,85.38
2018-06-02T07:46:38.056Z,85.57
2018-06-02T07:49:06.232Z,85.89
2018-06-02T07:51:34.406Z,85.49
2018-06-02T07:54:02.605Z,84.63
2018-06-02T07:56:30.773Z,85.20
2018-06-02T07:58:59.045Z,84.71
2018-06-02T08:01:27.220Z,84.59
2018-06-02T08:03:55.400Z,83.44
2018-06-02T08:06:23.597Z,83.21
2018-06-02T08:08:51.774Z,82.56
2018-06-02T08:11:19.970Z,81.77
2018-06-02T08:13:48.179Z,82.64
2018-06-02T08:16:16.349Z,81.64
2018-06-02T08:18:44.536Z,82.29
2018-06-02T08:21:12.718Z,82.03
2018-06-02T08:23:40.936Z,83.81
2018-06-02T08:26:09.097Z,80.38
2018-06-02T08:28:37.281Z,81.74
2018-06-02T08:31:05.474Z,79.71
2018-06-02T08:33:33.724Z,80.44
2018-06-02T08:36:01.906Z,81.14
2018-06-02T08:38:30.074Z,80.44
2018-06-02T08:43:35.930Z,80.67
2018-06-02T08:46:04.122Z,79.11
2018-06-02T08:48:32.291Z,80.30
2018-06-02T08:51:00.501Z,80.67
2018-06-02T08:53:28.673Z,80.51
2018-06-02T08:55:56.870Z,81.23
2018-06-02T08:58:25.037Z,82.24
2018-06-02T09:00:53.257Z,81.68
2018-06-02T09:03:21.523Z,81.43
2018-06-02T09:05:49.694Z,81.11
2018-06-02T09:08:17.905Z,78.69
2018-06-02T09:10:46.069Z,77.65
2018-06-02T09:13:14.253Z,77.26
2018-06-02T09:15:42.448Z,76.73
2018-06-02T09:18:10.598Z,76.74
2018-06-02T09:20:38.843Z,77.63
2018-06-02T09:23:06.999Z,74.99
2018-06-02T09:25:35.172Z,75.68
2018-06-02T09:28:03.809Z,74.69
2018-06-02T09:30:31.981Z,74.92
2018-06-02T09:33:00.150Z,73.95
2018-06-02T09:35:28.351Z,72.42
2018-06-02T09:37:56.574Z,71.07
2018-06-02T09:40:24.734Z,71.41
2018-06-02T09:42:52.920Z,70.77
2018-06-02T09:45:21.084Z,71.70
2018-06-02T09:47:49.280Z,71.03
2018-06-02T09:50:17.490Z,70.96
2018-06-02T09:52:45.681Z,70.49
2018-06-02T09:55:13.897Z,71.53
2018-06-02T09:57:42.062Z,70.56
2018-06-02T10:00:10.266Z,71.62
2018-06-02T10:02:38.470Z,70.41
2018-06-02T10:05:06.696Z,71.80
2018-06-02T10:07:34.886Z,71.19
2018-06-02T10:10:03.249Z,71.88
2018-06-02T10:12:31.463Z,69.64
2018-06-02T10:14:59.633Z,70.31
2018-06-02T10:17:27.823Z,69.46
2018-06-02T10:19:55.990Z,70.27
2018-06-02T10:22:24.201Z,70.06
2018-06-02T10:24:52.381Z,69.06
2018-06-02T10:27:20.531Z,70.16
2018-06-02T10:29:48.682Z,69.84
2018-06-02T10:32:16.980Z,65.94
2018-06-02T10:34:45.119Z,66.59
2018-06-02T10:37:13.321Z,66.67
2018-06-02T10:39:41.488Z,66.05
2018-06-02T10:42:10.492Z,66.45
2018-06-02T10:44:38.718Z,65.22
2018-06-02T10:47:06.822Z,66.38
2018-06-02T10:49:35.014Z,66.17
2018-06-02T10:52:03.191Z,65.88
2018-06-02T10:54:31.421Z,65.85
2018-06-02T10:56:59.617Z,66.07
2018-06-02T10:59:27.800Z,66.92
2018-06-02T11:01:55.997Z,66.60
2018-06-02T11:04:24.196Z,64.86
2018-06-02T11:06:52.352Z,64.49
2018-06-02T11:09:21.476Z,63.90
2018-06-02T11:11:49.644Z,64.79
2018-06-02T11:14:17.825Z,64.49
2018-06-02T11:16:46.047Z,65.82
2018-06-02T11:19:14.210Z,65.69
2018-06-02T11:21:42.409Z,66.79
2018-06-02T11:24:10.550Z,65.95
2018-06-02T11:26:38.744Z,63.85
2018-06-02T11:29:06.941Z,64.06
2018-06-02T11:31:35.088Z,65.47
2018-06-02T11:34:03.273Z,63.13
2018-06-02T11:36:31.453Z,63.35
2018-06-02T11:38:59.629Z,63.60
2018-06-02T11:41:27.806Z,61.28
2018-06-02T11:43:56.006Z,61.22
2018-06-02T11:46:24.222Z,60.59
2018-06-02T11:48:52.398Z,59.83
2018-06-02T11:51:20.576Z,58.20
2018-06-02T11:53:48.746Z,59.81
2018-06-02T11:56:17.538Z,59.69
2018-06-02T11:58:45.769Z,58.37
2018-06-02T12:01:13.966Z,54.14
2018-06-02T12:03:42.149Z,54.46
2018-06-02T12:06:10.358Z,51.98
2018-06-02T12:08:38.510Z,53.56
2018-06-02T12:11:06.739Z,54.32
2018-06-02T12:13:34.939Z,53.21
2018-06-02T12:16:03.140Z,52.67
2018-06-02T12:18:31.314Z,52.73
2018-06-02T12:20:59.531Z,51.93
2018-06-02T12:23:27.771Z,53.83
2018-06-02T12:25:55.986Z,53.68
2018-06-02T12:28:24.240Z,55.15
2018-06-02T12:30:52.406Z,56.18
2018-06-02T12:33:20.613Z,57.28
2018-06-02T12:35:48.783Z,58.34
2018-06-02T12:38:17.275Z,57.66
2018-06-02T12:40:45.440Z,57.52
2018-06-02T12:43:13.623Z,56.49
2018-06-02T12:45:41.789Z,57.79
2018-06-02T12:48:09.994Z,55.63
2018-06-02T12:50:38.204Z,56.32
2018-06-02T12:53:06.361Z,57.69
2018-06-02T12:55:34.635Z,55.66
2018-06-02T12:58:03.071Z,56.60
2018-06-02T13:00:31.356Z,56.62
2018-06-02T13:02:59.538Z,56.85
2018-06-02T13:05:27.753Z,56.73
2018-06-02T13:07:55.939Z,56.32
2018-06-02T13:10:24.102Z,56.66
2018-06-02T13:12:52.292Z,56.47
2018-06-02T13:15:20.495Z,56.67
2018-06-02T13:17:48.765Z,57.03
2018-06-02T13:20:16.969Z,56.91
2018-06-02T13:22:45.165Z,57.10
2018-06-02T13:25:14.046Z,57.07
2018-06-02T13:27:42.307Z,58.46
2018-06-02T13:30:10.538Z,58.85
2018-06-02T13:32:38.711Z,59.91
2018-06-02T13:35:06.919Z,58.52
2018-06-02T13:37:35.066Z,58.90
2018-06-02T13:40:03.254Z,57.84
2018-06-02T13:42:31.447Z,56.32
2018-06-02T13:44:59.625Z,55.68
2018-06-02T13:47:27.809Z,56.30
2018-06-02T13:49:56.020Z,55.63
2018-06-02T13:52:24.188Z,56.18
2018-06-02T13:54:52.363Z,57.12
2018-06-02T13:57:20.537Z,58.21
2018-06-02T13:59:48.922Z,56.64
2018-06-02T14:02:17.774Z,55.39
2018-06-02T14:04:45.976Z,56.37
2018-06-02T14:07:14.144Z,56.24
2018-06-02T14:09:42.777Z,55.94
2018-06-02T14:12:11.020Z,55.84
2018-06-02T14:14:39.251Z,57.01
2018-06-02T14:17:07.421Z,55.60
2018-06-02T14:19:35.632Z,53.17
2018-06-02T14:22:03.784Z,50.37
2018-06-02T14:24:31.996Z,52.13
2018-06-02T14:27:00.185Z,50.55
2018-06-02T14:29:28.387Z,51.74
2018-06-02T14:31:56.576Z,52.82
2018-06-02T14:34:24.809Z,54.40
2018-06-02T14:36:53.020Z,54.07
2018-06-02T14:39:21.229Z,53.26
2018-06-02T14:41:49.408Z,52.92
2018-06-02T14:44:17.600Z,51.35
2018-06-02T14:46:45.768Z,52.43
2018-06-02T14:49:13.977Z,52.12
2018-06-02T14:51:42.173Z,52.48
2018-06-02T14:54:10.375Z,52.82
2018-06-02T14:56:38.575Z,52.65
2018-06-02T14:59:06.765Z,54.52
2018-06-02T15:01:34.991Z,54.43
2018-06-02T15:04:03.145Z,52.22
2018-06-02T15:06:31.328Z,53.62
2018-06-02T15:08:59.497Z,54.10
2018-06-02T15:11:27.727Z,54.94
2018-06-02T15:13:55.968Z,55.02
2018-06-02T15:16:24.161Z,55.17
2018-06-02T15:18:52.402Z,55.51
2018-06-02T15:21:20.547Z,54.17
2018-06-02T15:23:48.736Z,54.90
2018-06-02T15:26:16.896Z,53.78
2018-06-02T15:28:45.105Z,53.77
2018-06-02T15:31:13.309Z,54.31
2018-06-02T15:33:41.461Z,55.29
2018-06-02T15:36:09.703Z,55.33
2018-06-02T15:38:37.859Z,55.83
2018-06-02T15:41:06.026Z,54.97
2018-06-02T15:43:34.248Z,55.28
2018-06-02T15:46:02.415Z,55.68
2018-06-02T15:48:30.585Z,54.58
2018-06-02T15:50:58.731Z,55.15
2018-06-02T15:53:26.933Z,55.54
2018-06-02T15:55:55.100Z,53.87
2018-06-02T15:58:23.276Z,55.04
2018-06-02T16:00:51.451Z,56.29
2018-06-02T16:03:19.636Z,55.66
2018-06-02T16:05:48.037Z,56.89
2018-06-02T16:08:16.257Z,56.60
2018-06-02T16:10:45.425Z,56.56
2018-06-02T16:13:13.772Z,58.49
2018-06-02T16:15:42.079Z,58.73
2018-06-02T16:18:10.839Z,58.59
2018-06-02T16:20:39.477Z,58.68
2018-06-02T16:23:07.831Z,59.00
2018-06-02T16:25:36.510Z,58.95
2018-06-02T16:28:04.934Z,58.06
2018-06-02T16:30:33.428Z,57.62
2018-06-02T16:33:01.600Z,57.05
2018-06-02T16:35:30.083Z,59.36
2018-06-02T16:37:58.513Z,56.26
2018-06-02T16:40:26.876Z,56.13
2018-06-02T16:42:55.167Z,55.81
2018-06-02T16:45:23.507Z,55.97
2018-06-02T16:47:51.822Z,56.57
2018-06-02T16:50:20.275Z,56.91
2018-06-02T16:52:49.295Z,57.41
2018-06-02T16:55:17.670Z,57.51
2018-06-02T16:57:46.100Z,59.86
2018-06-02T17:00:14.586Z,59.65
2018-06-02T17:02:42.876Z,59.72
2018-06-02T17:05:11.382Z,59.60
2018-06-02T17:07:39.535Z,60.02
2018-06-02T17:10:07.693Z,61.31
2018-06-02T17:12:36.393Z,59.82
2018-06-02T17:15:04.569Z,59.35
2018-06-02T17:17:32.761Z,60.32
2018-06-02T17:20:00.960Z,60.26
2018-06-02T17:22:29.115Z,60.52
2018-06-02T17:24:57.286Z,60.78
2018-06-02T17:27:25.453Z,60.80
2018-06-02T17:29:53.626Z,61.56
2018-06-02T17:32:21.777Z,60.61
2018-06-02T17:34:49.963Z,60.65
2018-06-02T17:37:18.116Z,61.04
2018-06-02T17:39:46.305Z,61.50
2018-06-02T17:42:14.454Z,60.61
2018-06-02T17:44:42.634Z,61.69
2018-06-02T17:47:10.829Z,60.46
2018-06-02T17:49:39.000Z,61.41
2018-06-02T17:52:07.199Z,61.75
2018-06-02T17:54:35.947Z,62.51
2018-06-02T17:57:04.125Z,62.33
2018-06-02T17:59:32.307Z,62.94
2018-06-02T18:02:00.472Z,62.34
2018-06-02T18:04:28.668Z,62.90
2018-06-02T18:06:56.825Z,62.57
2018-06-02T18:09:25.023Z,62.82
2018-06-02T18:11:53.203Z,62.98
2018-06-02T18:14:21.396Z,63.23
2018-06-02T18:16:49.565Z,62.22
2018-06-02T18:19:17.753Z,62.51
2018-06-02T18:21:45.991Z,63.00
2018-06-02T18:24:14.269Z,63.41
2018-06-02T18:26:42.487Z,63.82
2018-06-02T18:29:10.647Z,64.21
2018-06-02T18:31:38.858Z,65.72
2018-06-02T18:34:07.053Z,64.64
2018-06-02T18:36:35.270Z,64.72
2018-06-02T18:39:03.458Z,65.56
2018-06-02T18:41:31.655Z,65.52
2018-06-02T18:43:59.812Z,65.75
2018-06-02T18:46:27.970Z,65.78
2018-06-02T18:48:56.155Z,66.92
2018-06-02T18:51:24.299Z,66.77
2018-06-02T18:53:52.503Z,66.66
2018-06-02T18:56:20.680Z,66.83
2018-06-02T18:58:48.865Z,66.70
2018-06-02T19:01:17.087Z,67.07
2018-06-02T19:03:45.250Z,67.24
2018-06-02T19:06:13.432Z,67.20
2018-06-02T19:08:41.609Z,67.81
2018-06-02T19:11:09.799Z,68.18
2018-06-02T19:13:37.966Z,68.17
2018-06-02T19:16:06.186Z,68.27
2018-06-02T19:18:34.375Z,68.28
2018-06-02T19:21:02.545Z,68.32
2018-06-02T19:23:30.738Z,69.34
2018-06-02T19:25:58.903Z,68.54
2018-06-02T19:28:27.102Z,68.84
2018-06-02T19:30:55.288Z,69.28
2018-06-02T19:33:23.590Z,69.80
2018-06-02T19:35:51.753Z,70.00
2018-06-02T19:38:19.935Z,70.96
2018-06-02T19:40:48.122Z,70.52
2018-06-02T19:43:16.385Z,70.76
2018-06-02T19:45:44.555Z,70.40
2018-06-02T19:48:12.798Z,70.71
2018-06-02T19:50:40.958Z,70.86
2018-06-02T19:53:09.143Z,71.56
2018-06-02T19:55:37.334Z,71.17
2018-06-02T19:58:05.504Z,71.15
2018-06-02T20:00:33.944Z,71.17
2018-06-02T20:03:02.143Z,71.21
2018-06-02T20:05:30.359Z,71.25
2018-06-02T20:07:58.565Z,71.10
2018-06-02T20:10:26.766Z,71.13
2018-06-02T20:12:54.944Z,71.33
2018-06-02T20:15:23.104Z,71.34
2018-06-02T20:17:51.385Z,71.25
2018-06-02T20:20:19.587Z,71.88
2018-06-02T20:22:47.781Z,71.94
2018-06-02T20:25:15.963Z,71.99
2018-06-02T20:27:44.152Z,71.49
2018-06-02T20:30:12.352Z,72.11
2018-06-02T20:32:40.567Z,71.85
2018-06-02T20:35:08.739Z,71.47
2018-06-02T20:37:36.900Z,71.73
2018-06-02T20:40:05.111Z,72.51
2018-06-02T20:42:33.311Z,72.15
2018-06-02T20:45:01.506Z,72.55
2018-06-02T20:47:29.692Z,72.31
2018-06-02T20:49:57.899Z,72.52
2018-06-02T20:52:26.097Z,72.57
2018-06-02T20:54:54.282Z,72.30
2018-06-02T20:57:22.492Z,72.59
2018-06-02T20:59:50.701Z,72.76
2018-06-02T21:02:18.883Z,73.12
2018-06-02T21:04:47.079Z,73.40
2018-06-02T21:07:15.269Z,73.55
2018-06-02T21:09:43.440Z,73.61
2018-06-02T21:12:11.634Z,73.56
2018-06-02T21:14:39.809Z,74.22
2018-06-02T21:17:08.010Z,73.84
2018-06-02T21:19:36.180Z,74.51
2018-06-02T21:22:04.336Z,74.12
2018-06-02T21:24:32.567Z,74.13
2018-06-02T21:27:00.752Z,74.29
2018-06-02T21:29:28.921Z,74.54
2018-06-02T21:31:57.124Z,74.48
2018-06-02T21:34:25.302Z,74.99
2018-06-02T21:36:53.476Z,74.83
2018-06-02T21:39:21.681Z,74.81
2018-06-02T21:41:49.856Z,74.99
2018-06-02T21:44:18.013Z,75.33
2018-06-02T21:46:46.245Z,75.34
2018-06-02T21:49:14.432Z,75.21
2018-06-02T21:51:42.632Z,75.52
2018-06-02T21:54:10.811Z,75.56
2018-06-02T21:56:39.033Z,75.37
2018-06-02T21:59:07.230Z,75.62
2018-06-02T22:01:35.404Z,75.07
2018-06-02T22:04:03.620Z,75.14
2018-06-02T22:06:31.841Z,75.02
2018-06-02T22:09:00.072Z,75.37
2018-06-02T22:11:28.247Z,74.92
2018-06-02T22:13:56.454Z,75.18
2018-06-02T22:16:24.650Z,75.35
2018-06-02T22:18:52.864Z,74.75
2018-06-02T22:21:21.037Z,75.26
2018-06-02T22:23:49.511Z,75.71
2018-06-02T22:26:17.762Z,75.99
2018-06-02T22:28:45.941Z,75.50
2018-06-02T22:31:14.146Z,76.31
2018-06-02T22:33:42.365Z,76.38
2018-06-02T22:36:10.598Z,76.40
2018-06-02T22:38:38.797Z,76.74
2018-06-02T22:41:06.974Z,76.46
2018-06-02T22:43:35.171Z,76.39
2018-06-02T22:46:03.327Z,76.83
2018-06-02T22:48:31.558Z,76.29
2018-06-02T22:50:59.761Z,76.39
2018-06-02T22:53:27.988Z,76.61
2018-06-02T22:55:56.171Z,76.38
2018-06-02T22:58:24.371Z,76.78
2018-06-02T23:00:52.578Z,77.11
2018-06-02T23:03:20.761Z,76.43
2018-06-02T23:05:48.962Z,76.19
2018-06-02T23:08:17.201Z,75.95
2018-06-02T23:10:45.397Z,76.58
2018-06-02T23:13:13.585Z,76.46
2018-06-02T23:15:41.795Z,76.83
2018-06-02T23:18:09.970Z,76.85
2018-06-02T23:20:38.188Z,76.94
2018-06-02T23:23:06.469Z,76.82
2018-06-02T23:25:34.621Z,77.40
2018-06-02T23:28:02.825Z,77.51
2018-06-02T23:30:31.016Z,77.76
2018-06-02T23:32:59.242Z,77.89
2018-06-02T23:35:27.465Z,77.36
2018-06-02T23:37:55.659Z,77.52
2018-06-02T23:40:23.834Z,77.92
2018-06-02T23:42:52.029Z,77.74
2018-06-02T23:45:20.254Z,77.63
2018-06-02T23:47:48.439Z,77.72
2018-06-02T23:50:16.618Z,78.05
2018-06-02T23:52:44.853Z,77.70
2018-06-02T23:55:13.018Z,77.74
2018-06-02T23:57:41.224Z,78.22
